sensor_id;sensor_type;location;lat;lon;timestamp;P1;durP1;ratioP1;P2;durP2;ratioP2
13374;SDS011;6756;51.354;15.754;2023-08-08T00:02:14;3.77;;;1.50;;
13374;SDS011;6756;51.354;15.754;2023-08-08T00:06:14;2.97;;;1.40;;
13374;SDS011;6756;51.354;15.754;2023-08-08T00:10:15;4.63;;;1.40;;
13374;SDS011;6756;51.354;15.754;2023-08-08T00:14:16;3.40;;;1.43;;
13374;SDS011;6756;51.354;15.754;2023-08-08T00:18:16;4.53;;;1.57;;
13374;SDS011;6756;51.354;15.754;2023-08-08T00:22:17;2.77;;;1.60;;
13374;SDS011;6756;51.354;15.754;2023-08-08T00:26:18;4.13;;;1.83;;
13374;SDS011;6756;51.354;15.754;2023-08-08T00:30:18;4.60;;;2.10;;
13374;SDS011;6756;51.354;15.754;2023-08-08T00:34:19;4.87;;;1.77;;
13374;SDS011;6756;51.354;15.754;2023-08-08T00:38:20;6.77;;;1.63;;
13374;SDS011;6756;51.354;15.754;2023-08-08T00:42:21;4.27;;;1.80;;
13374;SDS011;6756;51.354;15.754;2023-08-08T00:46:22;3.37;;;2.07;;
13374;SDS011;6756;51.354;15.754;2023-08-08T00:50:24;5.03;;;1.83;;
13374;SDS011;6756;51.354;15.754;2023-08-08T00:54:24;4.00;;;1.63;;
13374;SDS011;6756;51.354;15.754;2023-08-08T00:58:26;5.20;;;2.10;;
13374;SDS011;6756;51.354;15.754;2023-08-08T01:02:27;4.63;;;1.60;;
13374;SDS011;6756;51.354;15.754;2023-08-08T01:06:33;4.30;;;2.00;;
13374;SDS011;6756;51.354;15.754;2023-08-08T01:10:39;4.50;;;1.57;;
13374;SDS011;6756;51.354;15.754;2023-08-08T01:14:42;4.63;;;1.60;;
13374;SDS011;6756;51.354;15.754;2023-08-08T01:18:43;5.40;;;2.27;;
13374;SDS011;6756;51.354;15.754;2023-08-08T01:27:11;5.67;;;2.13;;
13374;SDS011;6756;51.354;15.754;2023-08-08T01:31:12;4.87;;;2.00;;
13374;SDS011;6756;51.354;15.754;2023-08-08T01:35:12;3.20;;;1.77;;
13374;SDS011;6756;51.354;15.754;2023-08-08T01:39:14;5.43;;;1.60;;
13374;SDS011;6756;51.354;15.754;2023-08-08T01:43:18;3.30;;;1.83;;
13374;SDS011;6756;51.354;15.754;2023-08-08T01:47:19;5.53;;;1.77;;
13374;SDS011;6756;51.354;15.754;2023-08-08T01:51:20;5.77;;;1.87;;
13374;SDS011;6756;51.354;15.754;2023-08-08T01:55:21;4.53;;;1.80;;
13374;SDS011;6756;51.354;15.754;2023-08-08T01:59:22;2.60;;;1.70;;
13374;SDS011;6756;51.354;15.754;2023-08-08T02:03:23;4.47;;;1.90;;
13374;SDS011;6756;51.354;15.754;2023-08-08T02:07:24;3.77;;;1.70;;
13374;SDS011;6756;51.354;15.754;2023-08-08T02:11:24;4.93;;;2.00;;
13374;SDS011;6756;51.354;15.754;2023-08-08T02:15:25;3.53;;;1.70;;
13374;SDS011;6756;51.354;15.754;2023-08-08T02:19:26;4.03;;;1.70;;
13374;SDS011;6756;51.354;15.754;2023-08-08T02:23:27;3.47;;;2.00;;
13374;SDS011;6756;51.354;15.754;2023-08-08T02:27:28;5.30;;;1.90;;
13374;SDS011;6756;51.354;15.754;2023-08-08T02:31:28;2.67;;;1.90;;
13374;SDS011;6756;51.354;15.754;2023-08-08T02:35:29;2.83;;;1.90;;
13374;SDS011;6756;51.354;15.754;2023-08-08T02:39:30;7.33;;;2.03;;
13374;SDS011;6756;51.354;15.754;2023-08-08T02:43:31;4.90;;;1.90;;
13374;SDS011;6756;51.354;15.754;2023-08-08T02:47:32;5.30;;;2.13;;
13374;SDS011;6756;51.354;15.754;2023-08-08T02:51:33;4.73;;;1.80;;
13374;SDS011;6756;51.354;15.754;2023-08-08T02:55:35;5.23;;;1.90;;
13374;SDS011;6756;51.354;15.754;2023-08-08T02:59:36;4.17;;;2.23;;
13374;SDS011;6756;51.354;15.754;2023-08-08T03:03:37;5.17;;;2.00;;
13374;SDS011;6756;51.354;15.754;2023-08-08T03:07:41;2.87;;;1.80;;
13374;SDS011;6756;51.354;15.754;2023-08-08T03:11:42;5.03;;;2.00;;
13374;SDS011;6756;51.354;15.754;2023-08-08T03:15:42;4.53;;;2.10;;
13374;SDS011;6756;51.354;15.754;2023-08-08T03:19:43;4.83;;;1.93;;
13374;SDS011;6756;51.354;15.754;2023-08-08T03:23:44;3.53;;;1.80;;
13374;SDS011;6756;51.354;15.754;2023-08-08T03:27:45;5.43;;;2.20;;
13374;SDS011;6756;51.354;15.754;2023-08-08T03:31:46;4.33;;;2.23;;
13374;SDS011;6756;51.354;15.754;2023-08-08T03:35:46;4.57;;;2.30;;
13374;SDS011;6756;51.354;15.754;2023-08-08T03:39:47;7.70;;;2.07;;
13374;SDS011;6756;51.354;15.754;2023-08-08T03:43:48;5.47;;;2.43;;
13374;SDS011;6756;51.354;15.754;2023-08-08T03:47:48;6.10;;;2.47;;
13374;SDS011;6756;51.354;15.754;2023-08-08T03:51:49;4.13;;;1.60;;
13374;SDS011;6756;51.354;15.754;2023-08-08T03:55:50;3.90;;;2.10;;
13374;SDS011;6756;51.354;15.754;2023-08-08T03:59:51;3.70;;;2.30;;
13374;SDS011;6756;51.354;15.754;2023-08-08T04:03:51;4.33;;;2.13;;
13374;SDS011;6756;51.354;15.754;2023-08-08T04:07:52;4.53;;;1.93;;
13374;SDS011;6756;51.354;15.754;2023-08-08T04:11:53;7.93;;;1.87;;
13374;SDS011;6756;51.354;15.754;2023-08-08T04:15:54;4.33;;;2.20;;
13374;SDS011;6756;51.354;15.754;2023-08-08T04:19:54;3.97;;;2.00;;
13374;SDS011;6756;51.354;15.754;2023-08-08T04:23:55;3.83;;;1.70;;
13374;SDS011;6756;51.354;15.754;2023-08-08T04:28:03;5.57;;;2.07;;
13374;SDS011;6756;51.354;15.754;2023-08-08T04:32:04;2.83;;;1.60;;
13374;SDS011;6756;51.354;15.754;2023-08-08T04:36:05;2.93;;;1.67;;
13374;SDS011;6756;51.354;15.754;2023-08-08T04:40:06;3.17;;;1.80;;
13374;SDS011;6756;51.354;15.754;2023-08-08T04:44:08;5.03;;;1.70;;
13374;SDS011;6756;51.354;15.754;2023-08-08T04:48:09;4.90;;;1.47;;
13374;SDS011;6756;51.354;15.754;2023-08-08T04:52:09;3.80;;;1.70;;
13374;SDS011;6756;51.354;15.754;2023-08-08T04:56:10;3.83;;;1.83;;
13374;SDS011;6756;51.354;15.754;2023-08-08T05:00:11;3.50;;;1.40;;
13374;SDS011;6756;51.354;15.754;2023-08-08T05:04:14;3.80;;;1.47;;
13374;SDS011;6756;51.354;15.754;2023-08-08T05:08:14;3.93;;;1.50;;
13374;SDS011;6756;51.354;15.754;2023-08-08T05:12:15;2.40;;;1.43;;
13374;SDS011;6756;51.354;15.754;2023-08-08T05:16:16;3.07;;;1.43;;
13374;SDS011;6756;51.354;15.754;2023-08-08T05:20:17;4.37;;;1.30;;
13374;SDS011;6756;51.354;15.754;2023-08-08T05:24:18;2.67;;;1.50;;
13374;SDS011;6756;51.354;15.754;2023-08-08T05:28:19;4.33;;;1.90;;
13374;SDS011;6756;51.354;15.754;2023-08-08T05:32:20;4.20;;;2.17;;
13374;SDS011;6756;51.354;15.754;2023-08-08T05:36:21;5.93;;;1.50;;
13374;SDS011;6756;51.354;15.754;2023-08-08T05:40:22;3.43;;;1.60;;
13374;SDS011;6756;51.354;15.754;2023-08-08T05:44:23;2.77;;;1.30;;
13374;SDS011;6756;51.354;15.754;2023-08-08T05:48:23;2.70;;;2.00;;
13374;SDS011;6756;51.354;15.754;2023-08-08T05:52:24;4.23;;;1.30;;
13374;SDS011;6756;51.354;15.754;2023-08-08T05:56:25;4.53;;;1.60;;
13374;SDS011;6756;51.354;15.754;2023-08-08T06:00:27;2.33;;;1.40;;
13374;SDS011;6756;51.354;15.754;2023-08-08T06:04:28;3.60;;;1.50;;
13374;SDS011;6756;51.354;15.754;2023-08-08T06:08:29;3.27;;;1.37;;
13374;SDS011;6756;51.354;15.754;2023-08-08T06:12:30;2.90;;;1.57;;
13374;SDS011;6756;51.354;15.754;2023-08-08T06:16:31;3.10;;;1.00;;
13374;SDS011;6756;51.354;15.754;2023-08-08T06:20:32;2.70;;;1.20;;
13374;SDS011;6756;51.354;15.754;2023-08-08T06:24:32;3.07;;;1.50;;
13374;SDS011;6756;51.354;15.754;2023-08-08T06:28:33;3.43;;;1.47;;
13374;SDS011;6756;51.354;15.754;2023-08-08T06:32:34;2.97;;;1.40;;
13374;SDS011;6756;51.354;15.754;2023-08-08T06:36:34;3.20;;;1.27;;
13374;SDS011;6756;51.354;15.754;2023-08-08T06:40:35;2.67;;;1.40;;
13374;SDS011;6756;51.354;15.754;2023-08-08T06:44:41;2.80;;;1.20;;
13374;SDS011;6756;51.354;15.754;2023-08-08T06:48:43;2.23;;;1.47;;
13374;SDS011;6756;51.354;15.754;2023-08-08T06:52:45;1.63;;;1.10;;
13374;SDS011;6756;51.354;15.754;2023-08-08T06:56:46;1.73;;;1.13;;
13374;SDS011;6756;51.354;15.754;2023-08-08T07:00:47;6.10;;;1.47;;
13374;SDS011;6756;51.354;15.754;2023-08-08T07:04:47;1.90;;;1.00;;
13374;SDS011;6756;51.354;15.754;2023-08-08T07:08:48;2.87;;;1.23;;
13374;SDS011;6756;51.354;15.754;2023-08-08T07:12:49;1.70;;;0.90;;
13374;SDS011;6756;51.354;15.754;2023-08-08T07:16:50;1.80;;;1.07;;
13374;SDS011;6756;51.354;15.754;2023-08-08T07:20:50;1.43;;;1.00;;
13374;SDS011;6756;51.354;15.754;2023-08-08T07:24:51;2.20;;;0.97;;
13374;SDS011;6756;51.354;15.754;2023-08-08T07:28:52;2.47;;;1.03;;
13374;SDS011;6756;51.354;15.754;2023-08-08T07:32:52;4.53;;;0.87;;
13374;SDS011;6756;51.354;15.754;2023-08-08T07:36:53;2.13;;;1.30;;
13374;SDS011;6756;51.354;15.754;2023-08-08T07:40:54;3.27;;;0.87;;
13374;SDS011;6756;51.354;15.754;2023-08-08T07:44:55;8.97;;;2.97;;
13374;SDS011;6756;51.354;15.754;2023-08-08T07:48:55;12.57;;;3.03;;
13374;SDS011;6756;51.354;15.754;2023-08-08T07:53:03;4.40;;;1.47;;
13374;SDS011;6756;51.354;15.754;2023-08-08T07:57:04;8.67;;;2.70;;
13374;SDS011;6756;51.354;15.754;2023-08-08T08:01:04;7.90;;;2.67;;
13374;SDS011;6756;51.354;15.754;2023-08-08T08:05:06;4.23;;;1.53;;
13374;SDS011;6756;51.354;15.754;2023-08-08T08:09:07;6.03;;;1.83;;
13374;SDS011;6756;51.354;15.754;2023-08-08T08:13:08;4.40;;;1.67;;
13374;SDS011;6756;51.354;15.754;2023-08-08T08:17:10;3.97;;;1.27;;
13374;SDS011;6756;51.354;15.754;2023-08-08T08:21:11;3.40;;;1.30;;
13374;SDS011;6756;51.354;15.754;2023-08-08T08:25:13;2.67;;;1.10;;
13374;SDS011;6756;51.354;15.754;2023-08-08T08:29:14;2.57;;;0.97;;
13374;SDS011;6756;51.354;15.754;2023-08-08T08:33:15;2.30;;;0.83;;
13374;SDS011;6756;51.354;15.754;2023-08-08T08:37:16;2.67;;;0.90;;
13374;SDS011;6756;51.354;15.754;2023-08-08T08:41:17;1.23;;;0.80;;
13374;SDS011;6756;51.354;15.754;2023-08-08T08:45:20;2.63;;;0.80;;
13374;SDS011;6756;51.354;15.754;2023-08-08T08:49:22;1.27;;;0.77;;
13374;SDS011;6756;51.354;15.754;2023-08-08T08:53:24;1.77;;;0.97;;
13374;SDS011;6756;51.354;15.754;2023-08-08T08:57:25;1.87;;;0.80;;
13374;SDS011;6756;51.354;15.754;2023-08-08T09:01:26;2.30;;;1.20;;
13374;SDS011;6756;51.354;15.754;2023-08-08T09:05:28;3.40;;;1.00;;
13374;SDS011;6756;51.354;15.754;2023-08-08T09:09:31;1.47;;;0.87;;
13374;SDS011;6756;51.354;15.754;2023-08-08T09:13:39;3.83;;;1.10;;
13374;SDS011;6756;51.354;15.754;2023-08-08T09:17:41;2.03;;;1.20;;
13374;SDS011;6756;51.354;15.754;2023-08-08T09:21:43;1.90;;;0.90;;
13374;SDS011;6756;51.354;15.754;2023-08-08T09:25:44;3.00;;;1.00;;
13374;SDS011;6756;51.354;15.754;2023-08-08T09:29:45;2.17;;;0.97;;
13374;SDS011;6756;51.354;15.754;2023-08-08T09:33:46;3.70;;;1.20;;
13374;SDS011;6756;51.354;15.754;2023-08-08T09:37:48;1.63;;;1.07;;
13374;SDS011;6756;51.354;15.754;2023-08-08T09:41:49;2.47;;;1.10;;
13374;SDS011;6756;51.354;15.754;2023-08-08T09:45:51;1.50;;;1.10;;
13374;SDS011;6756;51.354;15.754;2023-08-08T09:49:51;1.93;;;1.00;;
13374;SDS011;6756;51.354;15.754;2023-08-08T09:53:52;3.67;;;1.17;;
13374;SDS011;6756;51.354;15.754;2023-08-08T09:57:57;5.53;;;1.17;;
13374;SDS011;6756;51.354;15.754;2023-08-08T10:01:58;3.47;;;1.20;;
13374;SDS011;6756;51.354;15.754;2023-08-08T10:06:00;1.93;;;0.93;;
13374;SDS011;6756;51.354;15.754;2023-08-08T10:10:01;1.50;;;1.10;;
13374;SDS011;6756;51.354;15.754;2023-08-08T10:14:03;3.70;;;1.17;;
13374;SDS011;6756;51.354;15.754;2023-08-08T10:18:04;1.77;;;1.10;;
13374;SDS011;6756;51.354;15.754;2023-08-08T10:22:05;2.33;;;0.93;;
13374;SDS011;6756;51.354;15.754;2023-08-08T10:26:19;2.43;;;1.30;;
13374;SDS011;6756;51.354;15.754;2023-08-08T10:30:20;2.60;;;1.07;;
13374;SDS011;6756;51.354;15.754;2023-08-08T10:34:21;2.80;;;1.10;;
13374;SDS011;6756;51.354;15.754;2023-08-08T10:38:27;1.83;;;0.93;;
13374;SDS011;6756;51.354;15.754;2023-08-08T10:42:53;1.23;;;1.00;;
13374;SDS011;6756;51.354;15.754;2023-08-08T10:46:54;1.70;;;0.77;;
13374;SDS011;6756;51.354;15.754;2023-08-08T10:50:59;1.87;;;1.10;;
13374;SDS011;6756;51.354;15.754;2023-08-08T10:55:01;4.80;;;1.43;;
13374;SDS011;6756;51.354;15.754;2023-08-08T10:59:12;1.80;;;1.07;;
13374;SDS011;6756;51.354;15.754;2023-08-08T11:03:18;2.60;;;1.50;;
13374;SDS011;6756;51.354;15.754;2023-08-08T11:07:20;2.80;;;0.90;;
13374;SDS011;6756;51.354;15.754;2023-08-08T11:11:21;2.57;;;1.30;;
13374;SDS011;6756;51.354;15.754;2023-08-08T11:15:22;2.80;;;1.00;;
13374;SDS011;6756;51.354;15.754;2023-08-08T11:19:23;4.33;;;1.30;;
13374;SDS011;6756;51.354;15.754;2023-08-08T11:23:24;4.83;;;1.27;;
13374;SDS011;6756;51.354;15.754;2023-08-08T11:27:25;2.87;;;1.40;;
13374;SDS011;6756;51.354;15.754;2023-08-08T11:31:26;6.30;;;1.57;;
13374;SDS011;6756;51.354;15.754;2023-08-08T11:35:27;6.53;;;0.97;;
13374;SDS011;6756;51.354;15.754;2023-08-08T11:39:28;4.27;;;1.30;;
13374;SDS011;6756;51.354;15.754;2023-08-08T11:43:29;3.80;;;1.27;;
13374;SDS011;6756;51.354;15.754;2023-08-08T11:47:32;1.93;;;1.10;;
13374;SDS011;6756;51.354;15.754;2023-08-08T11:51:36;2.30;;;1.07;;
13374;SDS011;6756;51.354;15.754;2023-08-08T11:55:36;2.00;;;1.00;;
13374;SDS011;6756;51.354;15.754;2023-08-08T11:59:38;1.83;;;1.10;;
13374;SDS011;6756;51.354;15.754;2023-08-08T12:03:38;0.83;;;0.83;;
13374;SDS011;6756;51.354;15.754;2023-08-08T12:07:40;2.47;;;0.90;;
13374;SDS011;6756;51.354;15.754;2023-08-08T12:11:46;2.50;;;1.07;;
13374;SDS011;6756;51.354;15.754;2023-08-08T12:15:46;3.30;;;1.00;;
13374;SDS011;6756;51.354;15.754;2023-08-08T12:19:47;1.60;;;1.30;;
13374;SDS011;6756;51.354;15.754;2023-08-08T12:23:48;2.80;;;1.07;;
13374;SDS011;6756;51.354;15.754;2023-08-08T12:27:49;1.03;;;0.70;;
13374;SDS011;6756;51.354;15.754;2023-08-08T12:31:50;1.97;;;0.90;;
13374;SDS011;6756;51.354;15.754;2023-08-08T12:35:50;1.90;;;0.90;;
13374;SDS011;6756;51.354;15.754;2023-08-08T12:39:51;2.00;;;0.90;;
13374;SDS011;6756;51.354;15.754;2023-08-08T12:43:52;1.83;;;0.80;;
13374;SDS011;6756;51.354;15.754;2023-08-08T12:47:53;2.27;;;0.87;;
13374;SDS011;6756;51.354;15.754;2023-08-08T12:51:54;1.40;;;0.80;;
13374;SDS011;6756;51.354;15.754;2023-08-08T12:55:55;3.00;;;1.10;;
13374;SDS011;6756;51.354;15.754;2023-08-08T12:59:56;3.73;;;1.00;;
13374;SDS011;6756;51.354;15.754;2023-08-08T13:03:57;3.03;;;1.37;;
13374;SDS011;6756;51.354;15.754;2023-08-08T13:07:57;1.23;;;0.77;;
13374;SDS011;6756;51.354;15.754;2023-08-08T13:11:58;1.90;;;1.17;;
13374;SDS011;6756;51.354;15.754;2023-08-08T13:15:59;2.80;;;0.80;;
13374;SDS011;6756;51.354;15.754;2023-08-08T13:20:00;2.17;;;1.17;;
13374;SDS011;6756;51.354;15.754;2023-08-08T13:24:01;2.20;;;0.90;;
13374;SDS011;6756;51.354;15.754;2023-08-08T13:28:02;1.80;;;1.07;;
13374;SDS011;6756;51.354;15.754;2023-08-08T13:32:03;3.23;;;1.10;;
13374;SDS011;6756;51.354;15.754;2023-08-08T13:36:04;2.87;;;1.30;;
13374;SDS011;6756;51.354;15.754;2023-08-08T13:40:05;2.13;;;1.20;;
13374;SDS011;6756;51.354;15.754;2023-08-08T13:44:07;4.73;;;1.07;;
13374;SDS011;6756;51.354;15.754;2023-08-08T13:48:09;2.93;;;1.10;;
13374;SDS011;6756;51.354;15.754;2023-08-08T13:52:10;2.23;;;1.10;;
13374;SDS011;6756;51.354;15.754;2023-08-08T13:56:11;4.30;;;1.20;;
13374;SDS011;6756;51.354;15.754;2023-08-08T14:00:12;1.40;;;1.13;;
13374;SDS011;6756;51.354;15.754;2023-08-08T14:04:12;2.10;;;1.27;;
13374;SDS011;6756;51.354;15.754;2023-08-08T14:08:13;6.63;;;1.50;;
13374;SDS011;6756;51.354;15.754;2023-08-08T14:12:14;3.73;;;1.00;;
13374;SDS011;6756;51.354;15.754;2023-08-08T14:16:15;2.63;;;1.10;;
13374;SDS011;6756;51.354;15.754;2023-08-08T14:20:17;1.17;;;0.73;;
13374;SDS011;6756;51.354;15.754;2023-08-08T14:24:19;1.80;;;0.93;;
13374;SDS011;6756;51.354;15.754;2023-08-08T14:28:20;1.67;;;1.13;;
13374;SDS011;6756;51.354;15.754;2023-08-08T14:32:20;2.00;;;1.00;;
13374;SDS011;6756;51.354;15.754;2023-08-08T14:36:21;2.27;;;1.00;;
13374;SDS011;6756;51.354;15.754;2023-08-08T14:40:22;2.37;;;1.10;;
13374;SDS011;6756;51.354;15.754;2023-08-08T14:44:23;2.30;;;1.10;;
13374;SDS011;6756;51.354;15.754;2023-08-08T14:48:24;3.03;;;0.90;;
13374;SDS011;6756;51.354;15.754;2023-08-08T14:52:26;11.70;;;1.13;;
13374;SDS011;6756;51.354;15.754;2023-08-08T14:56:27;2.47;;;1.30;;
13374;SDS011;6756;51.354;15.754;2023-08-08T15:00:27;11.27;;;2.50;;
13374;SDS011;6756;51.354;15.754;2023-08-08T15:04:28;2.47;;;1.10;;
13374;SDS011;6756;51.354;15.754;2023-08-08T15:08:29;5.67;;;1.17;;
13374;SDS011;6756;51.354;15.754;2023-08-08T15:12:30;4.50;;;1.50;;
13374;SDS011;6756;51.354;15.754;2023-08-08T15:16:31;3.07;;;1.03;;
13374;SDS011;6756;51.354;15.754;2023-08-08T15:20:32;3.90;;;1.40;;
13374;SDS011;6756;51.354;15.754;2023-08-08T15:24:33;2.20;;;1.20;;
13374;SDS011;6756;51.354;15.754;2023-08-08T15:28:36;6.27;;;1.50;;
13374;SDS011;6756;51.354;15.754;2023-08-08T15:32:36;6.93;;;1.33;;
13374;SDS011;6756;51.354;15.754;2023-08-08T15:36:37;2.90;;;1.40;;
13374;SDS011;6756;51.354;15.754;2023-08-08T15:40:38;3.40;;;1.00;;
13374;SDS011;6756;51.354;15.754;2023-08-08T15:44:39;1.73;;;0.97;;
13374;SDS011;6756;51.354;15.754;2023-08-08T15:48:39;1.87;;;1.30;;
13374;SDS011;6756;51.354;15.754;2023-08-08T15:52:40;2.40;;;1.17;;
13374;SDS011;6756;51.354;15.754;2023-08-08T15:56:41;3.93;;;1.20;;
13374;SDS011;6756;51.354;15.754;2023-08-08T16:00:41;6.80;;;1.20;;
13374;SDS011;6756;51.354;15.754;2023-08-08T16:04:42;2.80;;;1.27;;
13374;SDS011;6756;51.354;15.754;2023-08-08T16:08:43;1.40;;;1.10;;
13374;SDS011;6756;51.354;15.754;2023-08-08T16:12:44;5.67;;;1.30;;
13374;SDS011;6756;51.354;15.754;2023-08-08T16:16:44;1.40;;;0.93;;
13374;SDS011;6756;51.354;15.754;2023-08-08T16:20:45;1.80;;;1.00;;
13374;SDS011;6756;51.354;15.754;2023-08-08T16:24:46;2.83;;;1.30;;
13374;SDS011;6756;51.354;15.754;2023-08-08T16:28:47;1.47;;;0.87;;
13374;SDS011;6756;51.354;15.754;2023-08-08T16:32:47;1.87;;;0.97;;
13374;SDS011;6756;51.354;15.754;2023-08-08T16:36:48;2.00;;;1.20;;
13374;SDS011;6756;51.354;15.754;2023-08-08T16:40:49;1.93;;;1.00;;
13374;SDS011;6756;51.354;15.754;2023-08-08T16:44:50;2.57;;;1.30;;
13374;SDS011;6756;51.354;15.754;2023-08-08T16:48:52;1.20;;;1.10;;
13374;SDS011;6756;51.354;15.754;2023-08-08T16:52:53;1.77;;;1.10;;
13374;SDS011;6756;51.354;15.754;2023-08-08T16:56:53;1.93;;;1.17;;
13374;SDS011;6756;51.354;15.754;2023-08-08T17:00:54;2.87;;;1.20;;
13374;SDS011;6756;51.354;15.754;2023-08-08T17:04:55;2.23;;;1.30;;
13374;SDS011;6756;51.354;15.754;2023-08-08T17:08:56;1.97;;;1.10;;
13374;SDS011;6756;51.354;15.754;2023-08-08T17:12:57;1.90;;;1.10;;
13374;SDS011;6756;51.354;15.754;2023-08-08T17:16:58;1.70;;;1.17;;
13374;SDS011;6756;51.354;15.754;2023-08-08T17:20:59;1.53;;;1.10;;
13374;SDS011;6756;51.354;15.754;2023-08-08T17:25:01;2.90;;;1.23;;
13374;SDS011;6756;51.354;15.754;2023-08-08T17:29:02;2.87;;;1.23;;
13374;SDS011;6756;51.354;15.754;2023-08-08T17:33:03;2.37;;;1.20;;
13374;SDS011;6756;51.354;15.754;2023-08-08T17:37:04;1.73;;;1.17;;
13374;SDS011;6756;51.354;15.754;2023-08-08T17:41:05;3.40;;;1.43;;
13374;SDS011;6756;51.354;15.754;2023-08-08T17:45:06;3.03;;;1.37;;
13374;SDS011;6756;51.354;15.754;2023-08-08T17:49:08;2.23;;;1.30;;
13374;SDS011;6756;51.354;15.754;2023-08-08T17:53:08;2.47;;;1.40;;
13374;SDS011;6756;51.354;15.754;2023-08-08T17:57:09;1.50;;;1.40;;
13374;SDS011;6756;51.354;15.754;2023-08-08T18:01:10;2.10;;;1.50;;
13374;SDS011;6756;51.354;15.754;2023-08-08T18:05:12;1.27;;;1.17;;
13374;SDS011;6756;51.354;15.754;2023-08-08T18:09:13;2.00;;;1.30;;
13374;SDS011;6756;51.354;15.754;2023-08-08T18:13:14;1.67;;;1.33;;
13374;SDS011;6756;51.354;15.754;2023-08-08T18:17:15;2.47;;;1.30;;
13374;SDS011;6756;51.354;15.754;2023-08-08T18:21:16;3.00;;;1.57;;
13374;SDS011;6756;51.354;15.754;2023-08-08T18:25:16;1.97;;;1.57;;
13374;SDS011;6756;51.354;15.754;2023-08-08T18:29:18;1.80;;;1.37;;
13374;SDS011;6756;51.354;15.754;2023-08-08T18:33:19;1.73;;;1.30;;
13374;SDS011;6756;51.354;15.754;2023-08-08T18:37:20;1.60;;;1.50;;
13374;SDS011;6756;51.354;15.754;2023-08-08T18:41:21;2.53;;;1.40;;
13374;SDS011;6756;51.354;15.754;2023-08-08T18:45:22;2.40;;;1.47;;
13374;SDS011;6756;51.354;15.754;2023-08-08T18:49:22;1.87;;;1.50;;
13374;SDS011;6756;51.354;15.754;2023-08-08T18:53:23;2.70;;;1.70;;
13374;SDS011;6756;51.354;15.754;2023-08-08T18:57:24;2.50;;;1.50;;
13374;SDS011;6756;51.354;15.754;2023-08-08T19:01:25;1.70;;;1.60;;
13374;SDS011;6756;51.354;15.754;2023-08-08T19:05:26;2.90;;;1.70;;
13374;SDS011;6756;51.354;15.754;2023-08-08T19:09:27;2.60;;;1.57;;
13374;SDS011;6756;51.354;15.754;2023-08-08T19:13:28;2.60;;;1.67;;
13374;SDS011;6756;51.354;15.754;2023-08-08T19:17:29;2.70;;;1.57;;
13374;SDS011;6756;51.354;15.754;2023-08-08T19:21:30;2.57;;;1.63;;
13374;SDS011;6756;51.354;15.754;2023-08-08T19:25:31;1.73;;;1.43;;
13374;SDS011;6756;51.354;15.754;2023-08-08T19:29:33;1.50;;;1.40;;
13374;SDS011;6756;51.354;15.754;2023-08-08T19:33:33;2.77;;;1.80;;
13374;SDS011;6756;51.354;15.754;2023-08-08T19:37:34;2.90;;;2.00;;
13374;SDS011;6756;51.354;15.754;2023-08-08T19:41:37;2.40;;;1.70;;
13374;SDS011;6756;51.354;15.754;2023-08-08T19:45:37;2.00;;;1.60;;
13374;SDS011;6756;51.354;15.754;2023-08-08T19:49:38;3.53;;;1.80;;
13374;SDS011;6756;51.354;15.754;2023-08-08T19:53:39;3.27;;;1.70;;
13374;SDS011;6756;51.354;15.754;2023-08-08T19:57:41;1.53;;;1.27;;
13374;SDS011;6756;51.354;15.754;2023-08-08T20:01:42;4.07;;;1.90;;
13374;SDS011;6756;51.354;15.754;2023-08-08T20:05:43;2.20;;;2.00;;
13374;SDS011;6756;51.354;15.754;2023-08-08T20:09:44;3.07;;;1.93;;
13374;SDS011;6756;51.354;15.754;2023-08-08T20:13:45;3.43;;;1.97;;
13374;SDS011;6756;51.354;15.754;2023-08-08T20:17:46;3.10;;;1.77;;
13374;SDS011;6756;51.354;15.754;2023-08-08T20:21:46;2.37;;;1.70;;
13374;SDS011;6756;51.354;15.754;2023-08-08T20:25:47;1.93;;;1.60;;
13374;SDS011;6756;51.354;15.754;2023-08-08T20:29:48;3.73;;;1.77;;
13374;SDS011;6756;51.354;15.754;2023-08-08T20:33:49;2.70;;;1.67;;
13374;SDS011;6756;51.354;15.754;2023-08-08T20:37:49;2.57;;;1.53;;
13374;SDS011;6756;51.354;15.754;2023-08-08T20:41:52;2.63;;;1.70;;
13374;SDS011;6756;51.354;15.754;2023-08-08T20:45:53;1.93;;;1.20;;
13374;SDS011;6756;51.354;15.754;2023-08-08T20:49:54;3.13;;;1.40;;
13374;SDS011;6756;51.354;15.754;2023-08-08T20:53:55;2.13;;;1.60;;
13374;SDS011;6756;51.354;15.754;2023-08-08T20:57:56;3.57;;;1.73;;
13374;SDS011;6756;51.354;15.754;2023-08-08T21:01:58;3.17;;;1.87;;
13374;SDS011;6756;51.354;15.754;2023-08-08T21:05:59;2.00;;;1.80;;
13374;SDS011;6756;51.354;15.754;2023-08-08T21:10:00;2.83;;;1.50;;
13374;SDS011;6756;51.354;15.754;2023-08-08T21:14:02;2.60;;;1.37;;
13374;SDS011;6756;51.354;15.754;2023-08-08T21:18:03;2.90;;;1.80;;
13374;SDS011;6756;51.354;15.754;2023-08-08T21:22:04;2.43;;;1.60;;
13374;SDS011;6756;51.354;15.754;2023-08-08T21:26:04;2.47;;;1.60;;
13374;SDS011;6756;51.354;15.754;2023-08-08T21:30:05;3.07;;;1.60;;
13374;SDS011;6756;51.354;15.754;2023-08-08T21:34:07;2.27;;;1.70;;
13374;SDS011;6756;51.354;15.754;2023-08-08T21:38:08;2.40;;;1.87;;
13374;SDS011;6756;51.354;15.754;2023-08-08T21:42:11;3.23;;;1.40;;
13374;SDS011;6756;51.354;15.754;2023-08-08T21:46:12;4.03;;;1.63;;
13374;SDS011;6756;51.354;15.754;2023-08-08T21:50:12;1.90;;;1.40;;
13374;SDS011;6756;51.354;15.754;2023-08-08T21:54:13;2.00;;;1.70;;
13374;SDS011;6756;51.354;15.754;2023-08-08T21:58:15;2.13;;;1.57;;
13374;SDS011;6756;51.354;15.754;2023-08-08T22:02:15;2.83;;;1.50;;
13374;SDS011;6756;51.354;15.754;2023-08-08T22:06:16;2.37;;;1.60;;
13374;SDS011;6756;51.354;15.754;2023-08-08T22:10:17;2.03;;;1.40;;
13374;SDS011;6756;51.354;15.754;2023-08-08T22:14:18;2.23;;;1.57;;
13374;SDS011;6756;51.354;15.754;2023-08-08T22:18:19;2.03;;;1.50;;
13374;SDS011;6756;51.354;15.754;2023-08-08T22:22:21;4.53;;;1.80;;
13374;SDS011;6756;51.354;15.754;2023-08-08T22:26:21;3.00;;;1.73;;
13374;SDS011;6756;51.354;15.754;2023-08-08T22:30:22;3.80;;;2.47;;
13374;SDS011;6756;51.354;15.754;2023-08-08T22:34:23;2.37;;;1.30;;
13374;SDS011;6756;51.354;15.754;2023-08-08T22:38:23;3.37;;;2.23;;
13374;SDS011;6756;51.354;15.754;2023-08-08T22:42:24;4.20;;;1.87;;
13374;SDS011;6756;51.354;15.754;2023-08-08T22:46:25;2.37;;;1.50;;
13374;SDS011;6756;51.354;15.754;2023-08-08T22:50:26;2.57;;;1.97;;
13374;SDS011;6756;51.354;15.754;2023-08-08T22:54:26;2.97;;;1.80;;
13374;SDS011;6756;51.354;15.754;2023-08-08T22:58:27;5.80;;;2.00;;
13374;SDS011;6756;51.354;15.754;2023-08-08T23:02:28;2.57;;;1.50;;
13374;SDS011;6756;51.354;15.754;2023-08-08T23:06:29;2.87;;;1.40;;
13374;SDS011;6756;51.354;15.754;2023-08-08T23:10:30;2.80;;;1.60;;
13374;SDS011;6756;51.354;15.754;2023-08-08T23:14:31;3.17;;;1.77;;
13374;SDS011;6756;51.354;15.754;2023-08-08T23:18:31;1.70;;;1.40;;
13374;SDS011;6756;51.354;15.754;2023-08-08T23:22:32;2.17;;;1.60;;
13374;SDS011;6756;51.354;15.754;2023-08-08T23:26:33;2.57;;;1.50;;
13374;SDS011;6756;51.354;15.754;2023-08-08T23:30:36;4.30;;;1.53;;
13374;SDS011;6756;51.354;15.754;2023-08-08T23:34:37;1.40;;;1.30;;
13374;SDS011;6756;51.354;15.754;2023-08-08T23:38:38;2.87;;;1.40;;
13374;SDS011;6756;51.354;15.754;2023-08-08T23:42:38;2.23;;;1.40;;
13374;SDS011;6756;51.354;15.754;2023-08-08T23:46:39;2.00;;;1.40;;
13374;SDS011;6756;51.354;15.754;2023-08-08T23:50:40;4.07;;;1.50;;
13374;SDS011;6756;51.354;15.754;2023-08-08T23:54:41;2.30;;;1.50;;
13374;SDS011;6756;51.354;15.754;2023-08-08T23:58:41;1.97;;;1.50;;
